Holiday City, Ohio
Current Conditions -  °F | °C
As of 12:14 AM on Tuesday 23 Dec 2014 (Local Time) from KJYM Reporting Station
Haze Haze  
Wind Chill: 30°   Ceiling: 5000
Heat Index: 38°   Visibility: 5mi
Dew Point: 37°   Wind: 12mph
Humidity: 96%   Direction: 100°E
Pressure: 29.75"   Gusts: NA
Location:  41.6146°N, 84.6314°W
Report Text: KJYM 230514Z AUTO 10010KT 5SM BR SCT040 BKN050 OVC080 03/03 A2975 RMK AO2 T00320026
Loading
Personal Weather Stations






























Interactive Weather Map New forecast layout! Learn more

10-Day Weather Forecast

Advertisements
Track Severe Weather on mobile